sensor_id;sensor_type;location;lat;lon;timestamp;P1;durP1;ratioP1;P2;durP2;ratioP2
19026;SDS011;9646;52.034;5.554;2023-11-19T00:01:58;15.52;;;5.05;;
19026;SDS011;9646;52.034;5.554;2023-11-19T00:04:26;13.48;;;4.90;;
19026;SDS011;9646;52.034;5.554;2023-11-19T00:06:56;10.15;;;4.78;;
19026;SDS011;9646;52.034;5.554;2023-11-19T00:09:28;13.07;;;4.45;;
19026;SDS011;9646;52.034;5.554;2023-11-19T00:11:55;11.85;;;4.47;;
19026;SDS011;9646;52.034;5.554;2023-11-19T00:14:23;15.70;;;4.05;;
19026;SDS011;9646;52.034;5.554;2023-11-19T00:16:50;12.93;;;5.00;;
19026;SDS011;9646;52.034;5.554;2023-11-19T00:19:18;12.77;;;4.47;;
19026;SDS011;9646;52.034;5.554;2023-11-19T00:21:47;10.98;;;4.32;;
19026;SDS011;9646;52.034;5.554;2023-11-19T00:24:14;13.63;;;4.28;;
19026;SDS011;9646;52.034;5.554;2023-11-19T00:26:42;13.00;;;4.38;;
19026;SDS011;9646;52.034;5.554;2023-11-19T00:29:10;13.88;;;4.25;;
19026;SDS011;9646;52.034;5.554;2023-11-19T00:31:38;10.75;;;3.35;;
19026;SDS011;9646;52.034;5.554;2023-11-19T00:34:06;15.18;;;4.10;;
19026;SDS011;9646;52.034;5.554;2023-11-19T00:36:33;16.52;;;4.38;;
19026;SDS011;9646;52.034;5.554;2023-11-19T00:39:01;15.13;;;4.18;;
19026;SDS011;9646;52.034;5.554;2023-11-19T00:41:28;19.85;;;5.53;;
19026;SDS011;9646;52.034;5.554;2023-11-19T00:43:55;19.95;;;4.72;;
19026;SDS011;9646;52.034;5.554;2023-11-19T00:46:22;15.60;;;4.78;;
19026;SDS011;9646;52.034;5.554;2023-11-19T00:48:49;20.00;;;4.82;;
19026;SDS011;9646;52.034;5.554;2023-11-19T00:51:16;17.67;;;4.68;;
19026;SDS011;9646;52.034;5.554;2023-11-19T00:53:43;17.80;;;5.13;;
19026;SDS011;9646;52.034;5.554;2023-11-19T00:56:12;17.17;;;4.43;;
19026;SDS011;9646;52.034;5.554;2023-11-19T00:58:39;15.65;;;4.38;;
19026;SDS011;9646;52.034;5.554;2023-11-19T01:01:06;15.60;;;3.95;;
19026;SDS011;9646;52.034;5.554;2023-11-19T01:03:33;18.40;;;4.40;;
19026;SDS011;9646;52.034;5.554;2023-11-19T01:06:00;15.75;;;4.90;;
19026;SDS011;9646;52.034;5.554;2023-11-19T01:08:27;23.55;;;5.15;;
19026;SDS011;9646;52.034;5.554;2023-11-19T01:10:55;17.65;;;5.95;;
19026;SDS011;9646;52.034;5.554;2023-11-19T01:13:23;18.33;;;4.60;;
19026;SDS011;9646;52.034;5.554;2023-11-19T01:15:50;18.92;;;5.00;;
19026;SDS011;9646;52.034;5.554;2023-11-19T01:18:17;23.48;;;5.05;;
19026;SDS011;9646;52.034;5.554;2023-11-19T01:20:44;19.88;;;4.60;;
19026;SDS011;9646;52.034;5.554;2023-11-19T01:23:11;19.35;;;4.53;;
19026;SDS011;9646;52.034;5.554;2023-11-19T01:25:38;22.55;;;4.72;;
19026;SDS011;9646;52.034;5.554;2023-11-19T01:28:05;23.10;;;4.78;;
19026;SDS011;9646;52.034;5.554;2023-11-19T01:30:34;25.83;;;5.15;;
19026;SDS011;9646;52.034;5.554;2023-11-19T01:33:01;19.10;;;4.80;;
19026;SDS011;9646;52.034;5.554;2023-11-19T01:35:28;20.05;;;4.95;;
19026;SDS011;9646;52.034;5.554;2023-11-19T01:37:55;19.23;;;4.35;;
19026;SDS011;9646;52.034;5.554;2023-11-19T01:40:22;25.67;;;5.50;;
19026;SDS011;9646;52.034;5.554;2023-11-19T01:42:49;23.42;;;5.30;;
19026;SDS011;9646;52.034;5.554;2023-11-19T01:45:21;22.55;;;5.13;;
19026;SDS011;9646;52.034;5.554;2023-11-19T01:47:50;20.33;;;4.53;;
19026;SDS011;9646;52.034;5.554;2023-11-19T01:50:17;22.70;;;5.68;;
19026;SDS011;9646;52.034;5.554;2023-11-19T01:52:45;25.83;;;4.85;;
19026;SDS011;9646;52.034;5.554;2023-11-19T01:55:13;30.58;;;6.28;;
19026;SDS011;9646;52.034;5.554;2023-11-19T01:57:40;22.20;;;4.63;;
19026;SDS011;9646;52.034;5.554;2023-11-19T02:00:07;25.13;;;5.25;;
19026;SDS011;9646;52.034;5.554;2023-11-19T02:02:37;18.85;;;4.43;;
19026;SDS011;9646;52.034;5.554;2023-11-19T02:05:06;20.60;;;4.55;;
19026;SDS011;9646;52.034;5.554;2023-11-19T02:07:33;23.88;;;5.60;;
19026;SDS011;9646;52.034;5.554;2023-11-19T02:10:00;27.65;;;5.80;;
19026;SDS011;9646;52.034;5.554;2023-11-19T02:12:30;24.40;;;4.93;;
19026;SDS011;9646;52.034;5.554;2023-11-19T02:14:58;26.05;;;5.60;;
19026;SDS011;9646;52.034;5.554;2023-11-19T02:17:26;26.88;;;5.00;;
19026;SDS011;9646;52.034;5.554;2023-11-19T02:19:53;23.35;;;4.85;;
19026;SDS011;9646;52.034;5.554;2023-11-19T02:22:22;25.30;;;5.55;;
19026;SDS011;9646;52.034;5.554;2023-11-19T02:24:50;24.50;;;5.13;;
19026;SDS011;9646;52.034;5.554;2023-11-19T02:27:20;33.13;;;6.28;;
19026;SDS011;9646;52.034;5.554;2023-11-19T02:29:52;31.85;;;6.18;;
19026;SDS011;9646;52.034;5.554;2023-11-19T02:32:19;27.15;;;6.10;;
19026;SDS011;9646;52.034;5.554;2023-11-19T02:34:46;23.30;;;4.95;;
19026;SDS011;9646;52.034;5.554;2023-11-19T02:37:13;27.42;;;6.13;;
19026;SDS011;9646;52.034;5.554;2023-11-19T02:39:40;33.67;;;6.40;;
19026;SDS011;9646;52.034;5.554;2023-11-19T02:42:08;34.10;;;8.00;;
19026;SDS011;9646;52.034;5.554;2023-11-19T02:44:35;37.17;;;7.38;;
19026;SDS011;9646;52.034;5.554;2023-11-19T02:47:04;28.92;;;6.20;;
19026;SDS011;9646;52.034;5.554;2023-11-19T02:49:33;34.78;;;6.03;;
19026;SDS011;9646;52.034;5.554;2023-11-19T02:52:02;31.35;;;7.95;;
19026;SDS011;9646;52.034;5.554;2023-11-19T02:54:32;30.40;;;8.48;;
19026;SDS011;9646;52.034;5.554;2023-11-19T02:57:00;29.45;;;6.72;;
19026;SDS011;9646;52.034;5.554;2023-11-19T02:59:29;38.83;;;7.22;;
19026;SDS011;9646;52.034;5.554;2023-11-19T03:02:05;31.38;;;6.32;;
19026;SDS011;9646;52.034;5.554;2023-11-19T03:04:36;35.25;;;7.80;;
19026;SDS011;9646;52.034;5.554;2023-11-19T03:07:04;38.78;;;6.90;;
19026;SDS011;9646;52.034;5.554;2023-11-19T03:09:32;40.17;;;9.15;;
19026;SDS011;9646;52.034;5.554;2023-11-19T03:12:00;33.15;;;6.93;;
19026;SDS011;9646;52.034;5.554;2023-11-19T03:14:27;35.60;;;7.10;;
19026;SDS011;9646;52.034;5.554;2023-11-19T03:16:54;36.55;;;7.90;;
19026;SDS011;9646;52.034;5.554;2023-11-19T03:19:22;36.10;;;8.70;;
19026;SDS011;9646;52.034;5.554;2023-11-19T03:21:49;40.03;;;7.80;;
19026;SDS011;9646;52.034;5.554;2023-11-19T03:24:16;35.97;;;7.35;;
19026;SDS011;9646;52.034;5.554;2023-11-19T03:26:48;45.95;;;8.70;;
19026;SDS011;9646;52.034;5.554;2023-11-19T03:29:16;35.80;;;7.82;;
19026;SDS011;9646;52.034;5.554;2023-11-19T03:31:43;36.42;;;7.50;;
19026;SDS011;9646;52.034;5.554;2023-11-19T03:34:10;39.42;;;9.02;;
19026;SDS011;9646;52.034;5.554;2023-11-19T03:36:39;31.80;;;6.85;;
19026;SDS011;9646;52.034;5.554;2023-11-19T03:39:06;36.75;;;7.60;;
19026;SDS011;9646;52.034;5.554;2023-11-19T03:41:33;39.70;;;9.15;;
19026;SDS011;9646;52.034;5.554;2023-11-19T03:44:00;41.90;;;8.25;;
19026;SDS011;9646;52.034;5.554;2023-11-19T03:46:27;33.80;;;7.70;;
19026;SDS011;9646;52.034;5.554;2023-11-19T03:48:55;38.97;;;7.30;;
19026;SDS011;9646;52.034;5.554;2023-11-19T03:51:22;35.28;;;6.97;;
19026;SDS011;9646;52.034;5.554;2023-11-19T03:53:50;38.65;;;7.40;;
19026;SDS011;9646;52.034;5.554;2023-11-19T03:56:17;31.63;;;7.15;;
19026;SDS011;9646;52.034;5.554;2023-11-19T03:58:46;37.17;;;7.68;;
19026;SDS011;9646;52.034;5.554;2023-11-19T04:01:13;39.17;;;7.72;;
19026;SDS011;9646;52.034;5.554;2023-11-19T04:03:40;34.20;;;7.05;;
19026;SDS011;9646;52.034;5.554;2023-11-19T04:06:07;38.97;;;8.48;;
19026;SDS011;9646;52.034;5.554;2023-11-19T04:08:34;26.50;;;6.60;;
19026;SDS011;9646;52.034;5.554;2023-11-19T04:11:04;35.95;;;8.45;;
19026;SDS011;9646;52.034;5.554;2023-11-19T04:13:31;33.15;;;6.78;;
19026;SDS011;9646;52.034;5.554;2023-11-19T04:15:58;41.17;;;7.63;;
19026;SDS011;9646;52.034;5.554;2023-11-19T04:18:25;37.70;;;8.25;;
19026;SDS011;9646;52.034;5.554;2023-11-19T04:20:52;42.22;;;8.93;;
19026;SDS011;9646;52.034;5.554;2023-11-19T04:23:19;35.30;;;8.25;;
19026;SDS011;9646;52.034;5.554;2023-11-19T04:25:46;37.58;;;8.20;;
19026;SDS011;9646;52.034;5.554;2023-11-19T04:28:15;41.30;;;8.05;;
19026;SDS011;9646;52.034;5.554;2023-11-19T04:30:42;36.50;;;8.10;;
19026;SDS011;9646;52.034;5.554;2023-11-19T04:33:09;35.38;;;7.55;;
19026;SDS011;9646;52.034;5.554;2023-11-19T04:35:36;42.15;;;8.98;;
19026;SDS011;9646;52.034;5.554;2023-11-19T04:38:03;41.08;;;9.18;;
19026;SDS011;9646;52.034;5.554;2023-11-19T04:40:31;43.72;;;8.55;;
19026;SDS011;9646;52.034;5.554;2023-11-19T04:42:58;41.53;;;9.32;;
19026;SDS011;9646;52.034;5.554;2023-11-19T04:45:27;29.10;;;6.30;;
19026;SDS011;9646;52.034;5.554;2023-11-19T04:47:54;33.35;;;7.43;;
19026;SDS011;9646;52.034;5.554;2023-11-19T04:50:21;39.60;;;9.18;;
19026;SDS011;9646;52.034;5.554;2023-11-19T04:52:48;43.97;;;8.75;;
19026;SDS011;9646;52.034;5.554;2023-11-19T04:55:15;39.08;;;7.25;;
19026;SDS011;9646;52.034;5.554;2023-11-19T04:57:43;38.60;;;7.03;;
19026;SDS011;9646;52.034;5.554;2023-11-19T05:00:10;39.70;;;8.77;;
19026;SDS011;9646;52.034;5.554;2023-11-19T05:02:40;36.75;;;7.47;;
19026;SDS011;9646;52.034;5.554;2023-11-19T05:05:07;34.45;;;6.72;;
19026;SDS011;9646;52.034;5.554;2023-11-19T05:07:34;35.33;;;7.57;;
19026;SDS011;9646;52.034;5.554;2023-11-19T05:10:01;38.38;;;9.13;;
19026;SDS011;9646;52.034;5.554;2023-11-19T05:12:29;46.30;;;8.65;;
19026;SDS011;9646;52.034;5.554;2023-11-19T05:14:56;34.25;;;7.57;;
19026;SDS011;9646;52.034;5.554;2023-11-19T05:17:23;41.88;;;7.63;;
19026;SDS011;9646;52.034;5.554;2023-11-19T05:19:52;35.78;;;8.02;;
19026;SDS011;9646;52.034;5.554;2023-11-19T05:22:19;35.03;;;7.80;;
19026;SDS011;9646;52.034;5.554;2023-11-19T05:24:46;35.08;;;8.02;;
19026;SDS011;9646;52.034;5.554;2023-11-19T05:27:14;42.53;;;9.52;;
19026;SDS011;9646;52.034;5.554;2023-11-19T05:29:41;41.10;;;7.50;;
19026;SDS011;9646;52.034;5.554;2023-11-19T05:32:08;41.75;;;7.93;;
19026;SDS011;9646;52.034;5.554;2023-11-19T05:34:36;38.90;;;9.57;;
19026;SDS011;9646;52.034;5.554;2023-11-19T05:37:04;39.17;;;8.45;;
19026;SDS011;9646;52.034;5.554;2023-11-19T05:39:32;43.78;;;7.85;;
19026;SDS011;9646;52.034;5.554;2023-11-19T05:42:02;33.45;;;8.40;;
19026;SDS011;9646;52.034;5.554;2023-11-19T05:44:29;37.08;;;8.02;;
19026;SDS011;9646;52.034;5.554;2023-11-19T05:46:56;35.58;;;7.45;;
19026;SDS011;9646;52.034;5.554;2023-11-19T05:49:23;34.90;;;7.45;;
19026;SDS011;9646;52.034;5.554;2023-11-19T05:51:50;41.40;;;9.48;;
19026;SDS011;9646;52.034;5.554;2023-11-19T05:54:22;46.38;;;9.90;;
19026;SDS011;9646;52.034;5.554;2023-11-19T05:56:49;36.72;;;9.65;;
19026;SDS011;9646;52.034;5.554;2023-11-19T05:59:19;41.35;;;7.95;;
19026;SDS011;9646;52.034;5.554;2023-11-19T06:01:47;39.15;;;8.90;;
19026;SDS011;9646;52.034;5.554;2023-11-19T06:04:15;41.83;;;8.68;;
19026;SDS011;9646;52.034;5.554;2023-11-19T06:06:42;38.53;;;7.45;;
19026;SDS011;9646;52.034;5.554;2023-11-19T06:09:09;49.00;;;9.70;;
19026;SDS011;9646;52.034;5.554;2023-11-19T06:11:38;35.15;;;7.53;;
19026;SDS011;9646;52.034;5.554;2023-11-19T06:14:06;43.15;;;10.70;;
19026;SDS011;9646;52.034;5.554;2023-11-19T06:16:33;37.67;;;9.30;;
19026;SDS011;9646;52.034;5.554;2023-11-19T06:19:01;40.05;;;8.60;;
19026;SDS011;9646;52.034;5.554;2023-11-19T06:21:29;43.97;;;8.82;;
19026;SDS011;9646;52.034;5.554;2023-11-19T06:23:56;44.03;;;9.52;;
19026;SDS011;9646;52.034;5.554;2023-11-19T06:26:24;40.42;;;6.97;;
19026;SDS011;9646;52.034;5.554;2023-11-19T06:28:52;42.13;;;9.50;;
19026;SDS011;9646;52.034;5.554;2023-11-19T06:31:19;39.78;;;8.57;;
19026;SDS011;9646;52.034;5.554;2023-11-19T06:33:46;42.70;;;9.57;;
19026;SDS011;9646;52.034;5.554;2023-11-19T06:36:14;42.65;;;8.82;;
19026;SDS011;9646;52.034;5.554;2023-11-19T06:38:42;40.95;;;9.23;;
19026;SDS011;9646;52.034;5.554;2023-11-19T06:41:09;48.95;;;10.10;;
19026;SDS011;9646;52.034;5.554;2023-11-19T06:43:36;40.38;;;8.75;;
19026;SDS011;9646;52.034;5.554;2023-11-19T06:46:05;44.67;;;8.98;;
19026;SDS011;9646;52.034;5.554;2023-11-19T06:48:32;38.83;;;7.38;;
19026;SDS011;9646;52.034;5.554;2023-11-19T06:50:59;39.83;;;9.18;;
19026;SDS011;9646;52.034;5.554;2023-11-19T06:53:26;35.92;;;7.55;;
19026;SDS011;9646;52.034;5.554;2023-11-19T06:55:54;41.15;;;7.90;;
19026;SDS011;9646;52.034;5.554;2023-11-19T06:58:22;34.85;;;7.70;;
19026;SDS011;9646;52.034;5.554;2023-11-19T07:00:49;40.08;;;8.32;;
19026;SDS011;9646;52.034;5.554;2023-11-19T07:03:17;46.22;;;9.18;;
19026;SDS011;9646;52.034;5.554;2023-11-19T07:05:45;38.03;;;7.88;;
19026;SDS011;9646;52.034;5.554;2023-11-19T07:08:12;47.00;;;8.55;;
19026;SDS011;9646;52.034;5.554;2023-11-19T07:10:39;44.90;;;10.77;;
19026;SDS011;9646;52.034;5.554;2023-11-19T07:13:06;36.25;;;8.88;;
19026;SDS011;9646;52.034;5.554;2023-11-19T07:15:33;44.53;;;9.13;;
19026;SDS011;9646;52.034;5.554;2023-11-19T07:18:00;39.30;;;7.25;;
19026;SDS011;9646;52.034;5.554;2023-11-19T07:20:29;35.40;;;8.43;;
19026;SDS011;9646;52.034;5.554;2023-11-19T07:22:58;44.67;;;7.95;;
19026;SDS011;9646;52.034;5.554;2023-11-19T07:25:25;33.05;;;7.20;;
19026;SDS011;9646;52.034;5.554;2023-11-19T07:27:52;41.28;;;8.50;;
19026;SDS011;9646;52.034;5.554;2023-11-19T07:30:19;44.72;;;9.48;;
19026;SDS011;9646;52.034;5.554;2023-11-19T07:32:46;43.08;;;8.98;;
19026;SDS011;9646;52.034;5.554;2023-11-19T07:35:13;29.60;;;6.85;;
19026;SDS011;9646;52.034;5.554;2023-11-19T07:37:42;40.05;;;8.40;;
19026;SDS011;9646;52.034;5.554;2023-11-19T07:40:11;36.15;;;7.28;;
19026;SDS011;9646;52.034;5.554;2023-11-19T07:42:38;40.15;;;8.82;;
19026;SDS011;9646;52.034;5.554;2023-11-19T07:45:06;31.27;;;6.82;;
19026;SDS011;9646;52.034;5.554;2023-11-19T07:47:33;34.28;;;7.90;;
19026;SDS011;9646;52.034;5.554;2023-11-19T07:50:00;44.40;;;8.15;;
19026;SDS011;9646;52.034;5.554;2023-11-19T07:52:27;40.17;;;7.38;;
19026;SDS011;9646;52.034;5.554;2023-11-19T07:54:56;42.58;;;8.63;;
19026;SDS011;9646;52.034;5.554;2023-11-19T07:57:23;39.53;;;7.38;;
19026;SDS011;9646;52.034;5.554;2023-11-19T07:59:52;37.75;;;8.57;;
19026;SDS011;9646;52.034;5.554;2023-11-19T08:02:19;36.58;;;7.68;;
19026;SDS011;9646;52.034;5.554;2023-11-19T08:04:46;43.15;;;9.63;;
19026;SDS011;9646;52.034;5.554;2023-11-19T08:07:16;41.33;;;8.27;;
19026;SDS011;9646;52.034;5.554;2023-11-19T08:09:44;38.00;;;8.35;;
19026;SDS011;9646;52.034;5.554;2023-11-19T08:12:12;34.33;;;7.72;;
19026;SDS011;9646;52.034;5.554;2023-11-19T08:14:41;38.97;;;8.70;;
19026;SDS011;9646;52.034;5.554;2023-11-19T08:17:09;34.55;;;7.95;;
19026;SDS011;9646;52.034;5.554;2023-11-19T08:19:36;34.95;;;7.38;;
19026;SDS011;9646;52.034;5.554;2023-11-19T08:22:03;36.08;;;8.55;;
19026;SDS011;9646;52.034;5.554;2023-11-19T08:24:30;39.88;;;6.90;;
19026;SDS011;9646;52.034;5.554;2023-11-19T08:26:57;30.35;;;6.88;;
19026;SDS011;9646;52.034;5.554;2023-11-19T08:29:25;36.38;;;7.90;;
19026;SDS011;9646;52.034;5.554;2023-11-19T08:31:53;35.25;;;7.55;;
19026;SDS011;9646;52.034;5.554;2023-11-19T08:34:20;29.85;;;6.63;;
19026;SDS011;9646;52.034;5.554;2023-11-19T08:36:49;38.72;;;7.90;;
19026;SDS011;9646;52.034;5.554;2023-11-19T08:39:18;28.45;;;6.80;;
19026;SDS011;9646;52.034;5.554;2023-11-19T08:41:46;40.13;;;8.45;;
19026;SDS011;9646;52.034;5.554;2023-11-19T08:44:13;36.92;;;7.18;;
19026;SDS011;9646;52.034;5.554;2023-11-19T08:46:47;31.33;;;7.70;;
19026;SDS011;9646;52.034;5.554;2023-11-19T08:49:14;34.88;;;8.35;;
19026;SDS011;9646;52.034;5.554;2023-11-19T08:51:41;38.38;;;6.80;;
19026;SDS011;9646;52.034;5.554;2023-11-19T08:54:08;32.85;;;6.82;;
19026;SDS011;9646;52.034;5.554;2023-11-19T08:56:35;38.63;;;7.25;;
19026;SDS011;9646;52.034;5.554;2023-11-19T08:59:04;40.05;;;7.55;;
19026;SDS011;9646;52.034;5.554;2023-11-19T09:01:31;31.58;;;7.32;;
19026;SDS011;9646;52.034;5.554;2023-11-19T09:04:00;35.92;;;8.93;;
19026;SDS011;9646;52.034;5.554;2023-11-19T09:06:27;38.38;;;7.82;;
19026;SDS011;9646;52.034;5.554;2023-11-19T09:08:54;34.17;;;7.82;;
19026;SDS011;9646;52.034;5.554;2023-11-19T09:11:25;29.58;;;6.32;;
19026;SDS011;9646;52.034;5.554;2023-11-19T09:13:52;36.15;;;8.77;;
19026;SDS011;9646;52.034;5.554;2023-11-19T09:16:19;35.40;;;8.48;;
19026;SDS011;9646;52.034;5.554;2023-11-19T09:18:46;31.45;;;7.25;;
19026;SDS011;9646;52.034;5.554;2023-11-19T09:21:15;41.13;;;7.82;;
19026;SDS011;9646;52.034;5.554;2023-11-19T09:23:42;33.15;;;6.68;;
19026;SDS011;9646;52.034;5.554;2023-11-19T09:26:10;31.52;;;6.80;;
19026;SDS011;9646;52.034;5.554;2023-11-19T09:28:37;35.28;;;7.55;;
19026;SDS011;9646;52.034;5.554;2023-11-19T09:31:12;33.78;;;7.78;;
19026;SDS011;9646;52.034;5.554;2023-11-19T09:33:39;34.38;;;7.20;;
19026;SDS011;9646;52.034;5.554;2023-11-19T09:36:06;38.55;;;8.50;;
19026;SDS011;9646;52.034;5.554;2023-11-19T09:38:35;35.50;;;8.13;;
19026;SDS011;9646;52.034;5.554;2023-11-19T09:43:39;31.65;;;8.07;;
19026;SDS011;9646;52.034;5.554;2023-11-19T09:46:06;40.78;;;8.73;;
19026;SDS011;9646;52.034;5.554;2023-11-19T09:48:35;38.95;;;7.65;;
19026;SDS011;9646;52.034;5.554;2023-11-19T09:51:03;31.75;;;7.63;;
19026;SDS011;9646;52.034;5.554;2023-11-19T09:53:31;40.08;;;8.23;;
19026;SDS011;9646;52.034;5.554;2023-11-19T09:56:00;29.27;;;6.72;;
19026;SDS011;9646;52.034;5.554;2023-11-19T09:58:28;31.48;;;7.45;;
19026;SDS011;9646;52.034;5.554;2023-11-19T10:00:56;32.08;;;7.80;;
19026;SDS011;9646;52.034;5.554;2023-11-19T10:03:24;36.60;;;7.43;;
19026;SDS011;9646;52.034;5.554;2023-11-19T10:05:51;32.97;;;7.28;;
19026;SDS011;9646;52.034;5.554;2023-11-19T10:08:19;41.83;;;7.80;;
19026;SDS011;9646;52.034;5.554;2023-11-19T10:10:46;35.97;;;7.50;;
19026;SDS011;9646;52.034;5.554;2023-11-19T10:13:15;40.90;;;7.55;;
19026;SDS011;9646;52.034;5.554;2023-11-19T10:15:42;30.60;;;8.25;;
19026;SDS011;9646;52.034;5.554;2023-11-19T10:18:10;34.92;;;7.32;;
19026;SDS011;9646;52.034;5.554;2023-11-19T10:20:37;34.47;;;6.22;;
19026;SDS011;9646;52.034;5.554;2023-11-19T10:23:04;36.92;;;8.40;;
19026;SDS011;9646;52.034;5.554;2023-11-19T10:25:32;35.85;;;8.88;;
19026;SDS011;9646;52.034;5.554;2023-11-19T10:27:59;37.47;;;8.02;;
19026;SDS011;9646;52.034;5.554;2023-11-19T10:30:28;31.65;;;7.18;;
19026;SDS011;9646;52.034;5.554;2023-11-19T10:33:04;33.55;;;6.90;;
19026;SDS011;9646;52.034;5.554;2023-11-19T10:35:32;26.65;;;6.80;;
19026;SDS011;9646;52.034;5.554;2023-11-19T10:37:59;39.05;;;7.10;;
19026;SDS011;9646;52.034;5.554;2023-11-19T10:40:39;38.33;;;8.40;;
19026;SDS011;9646;52.034;5.554;2023-11-19T10:43:06;24.95;;;6.00;;
19026;SDS011;9646;52.034;5.554;2023-11-19T10:45:35;34.72;;;7.53;;
19026;SDS011;9646;52.034;5.554;2023-11-19T10:48:02;31.70;;;6.85;;
19026;SDS011;9646;52.034;5.554;2023-11-19T10:50:31;27.33;;;5.97;;
19026;SDS011;9646;52.034;5.554;2023-11-19T10:52:59;37.50;;;9.55;;
19026;SDS011;9646;52.034;5.554;2023-11-19T10:55:27;30.75;;;7.32;;
19026;SDS011;9646;52.034;5.554;2023-11-19T10:57:55;33.10;;;7.47;;
19026;SDS011;9646;52.034;5.554;2023-11-19T11:00:24;36.88;;;8.18;;
19026;SDS011;9646;52.034;5.554;2023-11-19T11:02:54;31.90;;;7.05;;
19026;SDS011;9646;52.034;5.554;2023-11-19T11:05:21;38.45;;;7.72;;
19026;SDS011;9646;52.034;5.554;2023-11-19T11:07:48;38.47;;;6.78;;
19026;SDS011;9646;52.034;5.554;2023-11-19T11:10:16;36.42;;;7.65;;
19026;SDS011;9646;52.034;5.554;2023-11-19T11:12:43;37.72;;;6.93;;
19026;SDS011;9646;52.034;5.554;2023-11-19T11:15:11;37.25;;;7.72;;
19026;SDS011;9646;52.034;5.554;2023-11-19T11:17:38;37.90;;;8.40;;
19026;SDS011;9646;52.034;5.554;2023-11-19T11:20:08;31.42;;;6.78;;
19026;SDS011;9646;52.034;5.554;2023-11-19T11:22:38;34.58;;;8.60;;
19026;SDS011;9646;52.034;5.554;2023-11-19T11:25:17;40.40;;;8.27;;
19026;SDS011;9646;52.034;5.554;2023-11-19T11:27:52;37.58;;;7.28;;
19026;SDS011;9646;52.034;5.554;2023-11-19T11:30:25;34.90;;;7.85;;
19026;SDS011;9646;52.034;5.554;2023-11-19T11:32:59;32.03;;;8.57;;
19026;SDS011;9646;52.034;5.554;2023-11-19T11:35:33;39.75;;;6.80;;
19026;SDS011;9646;52.034;5.554;2023-11-19T11:38:03;35.72;;;9.35;;
19026;SDS011;9646;52.034;5.554;2023-11-19T11:40:30;37.75;;;8.93;;
19026;SDS011;9646;52.034;5.554;2023-11-19T11:42:58;21.27;;;4.20;;
19026;SDS011;9646;52.034;5.554;2023-11-19T11:45:37;43.50;;;8.52;;
19026;SDS011;9646;52.034;5.554;2023-11-19T11:48:11;32.85;;;7.40;;
19026;SDS011;9646;52.034;5.554;2023-11-19T11:50:52;30.20;;;7.60;;
19026;SDS011;9646;52.034;5.554;2023-11-19T11:53:20;36.88;;;6.35;;
19026;SDS011;9646;52.034;5.554;2023-11-19T11:55:55;31.63;;;7.13;;
19026;SDS011;9646;52.034;5.554;2023-11-19T11:58:34;44.67;;;8.07;;
19026;SDS011;9646;52.034;5.554;2023-11-19T12:01:03;37.40;;;6.72;;
19026;SDS011;9646;52.034;5.554;2023-11-19T12:03:31;32.72;;;7.10;;
19026;SDS011;9646;52.034;5.554;2023-11-19T12:06:00;31.33;;;6.90;;
19026;SDS011;9646;52.034;5.554;2023-11-19T12:08:28;28.67;;;6.75;;
19026;SDS011;9646;52.034;5.554;2023-11-19T12:10:56;27.23;;;6.38;;
19026;SDS011;9646;52.034;5.554;2023-11-19T12:13:24;22.23;;;6.47;;
19026;SDS011;9646;52.034;5.554;2023-11-19T12:16:07;28.85;;;6.30;;
19026;SDS011;9646;52.034;5.554;2023-11-19T12:18:34;25.67;;;5.60;;
19026;SDS011;9646;52.034;5.554;2023-11-19T12:21:03;27.45;;;5.80;;
19026;SDS011;9646;52.034;5.554;2023-11-19T12:23:30;25.77;;;5.38;;
19026;SDS011;9646;52.034;5.554;2023-11-19T12:25:58;27.30;;;6.00;;
19026;SDS011;9646;52.034;5.554;2023-11-19T12:28:26;23.15;;;4.90;;
19026;SDS011;9646;52.034;5.554;2023-11-19T12:30:53;30.38;;;6.45;;
19026;SDS011;9646;52.034;5.554;2023-11-19T12:33:20;29.80;;;5.90;;
19026;SDS011;9646;52.034;5.554;2023-11-19T12:35:48;30.17;;;6.80;;
19026;SDS011;9646;52.034;5.554;2023-11-19T12:38:19;30.38;;;5.97;;
19026;SDS011;9646;52.034;5.554;2023-11-19T12:40:47;29.55;;;6.68;;
19026;SDS011;9646;52.034;5.554;2023-11-19T12:43:21;28.52;;;6.80;;
19026;SDS011;9646;52.034;5.554;2023-11-19T12:45:48;29.65;;;7.32;;
19026;SDS011;9646;52.034;5.554;2023-11-19T12:48:15;28.45;;;6.35;;
19026;SDS011;9646;52.034;5.554;2023-11-19T12:50:52;22.17;;;6.25;;
19026;SDS011;9646;52.034;5.554;2023-11-19T12:53:21;33.88;;;8.60;;
19026;SDS011;9646;52.034;5.554;2023-11-19T12:55:48;28.85;;;7.50;;
19026;SDS011;9646;52.034;5.554;2023-11-19T12:58:27;27.80;;;6.43;;
19026;SDS011;9646;52.034;5.554;2023-11-19T13:00:59;24.02;;;5.97;;
19026;SDS011;9646;52.034;5.554;2023-11-19T13:03:29;33.53;;;7.13;;
19026;SDS011;9646;52.034;5.554;2023-11-19T13:06:03;32.92;;;6.22;;
19026;SDS011;9646;52.034;5.554;2023-11-19T13:08:37;29.80;;;6.32;;
19026;SDS011;9646;52.034;5.554;2023-11-19T13:11:04;31.65;;;6.40;;
19026;SDS011;9646;52.034;5.554;2023-11-19T13:13:32;29.02;;;6.63;;
19026;SDS011;9646;52.034;5.554;2023-11-19T13:16:04;29.63;;;6.35;;
19026;SDS011;9646;52.034;5.554;2023-11-19T13:18:31;26.20;;;5.50;;
19026;SDS011;9646;52.034;5.554;2023-11-19T13:20:58;35.17;;;5.65;;
19026;SDS011;9646;52.034;5.554;2023-11-19T13:23:25;32.33;;;6.00;;
19026;SDS011;9646;52.034;5.554;2023-11-19T13:25:54;29.92;;;6.75;;
19026;SDS011;9646;52.034;5.554;2023-11-19T13:28:21;30.60;;;7.35;;
19026;SDS011;9646;52.034;5.554;2023-11-19T13:30:48;40.00;;;6.53;;
19026;SDS011;9646;52.034;5.554;2023-11-19T13:33:15;29.45;;;7.30;;
19026;SDS011;9646;52.034;5.554;2023-11-19T13:35:42;30.58;;;7.30;;
19026;SDS011;9646;52.034;5.554;2023-11-19T13:38:09;32.60;;;7.85;;
19026;SDS011;9646;52.034;5.554;2023-11-19T13:40:36;27.17;;;5.82;;
19026;SDS011;9646;52.034;5.554;2023-11-19T13:45:41;29.17;;;6.38;;
19026;SDS011;9646;52.034;5.554;2023-11-19T13:48:08;32.55;;;6.18;;
19026;SDS011;9646;52.034;5.554;2023-11-19T13:50:35;28.73;;;7.15;;
19026;SDS011;9646;52.034;5.554;2023-11-19T13:53:02;26.23;;;6.78;;
19026;SDS011;9646;52.034;5.554;2023-11-19T13:55:30;27.40;;;5.88;;
19026;SDS011;9646;52.034;5.554;2023-11-19T13:57:57;31.35;;;6.50;;
19026;SDS011;9646;52.034;5.554;2023-11-19T14:00:24;21.52;;;5.50;;
19026;SDS011;9646;52.034;5.554;2023-11-19T14:02:52;22.95;;;4.47;;
19026;SDS011;9646;52.034;5.554;2023-11-19T14:05:19;25.77;;;5.68;;
19026;SDS011;9646;52.034;5.554;2023-11-19T14:07:48;29.33;;;5.60;;
19026;SDS011;9646;52.034;5.554;2023-11-19T14:10:16;20.77;;;5.38;;
19026;SDS011;9646;52.034;5.554;2023-11-19T14:12:43;24.30;;;6.63;;
19026;SDS011;9646;52.034;5.554;2023-11-19T14:15:10;23.33;;;5.47;;
19026;SDS011;9646;52.034;5.554;2023-11-19T14:17:38;21.25;;;5.20;;
19026;SDS011;9646;52.034;5.554;2023-11-19T14:20:07;26.42;;;5.65;;
19026;SDS011;9646;52.034;5.554;2023-11-19T14:22:38;29.52;;;5.35;;
19026;SDS011;9646;52.034;5.554;2023-11-19T14:25:05;26.40;;;6.03;;
19026;SDS011;9646;52.034;5.554;2023-11-19T14:27:35;25.65;;;5.63;;
19026;SDS011;9646;52.034;5.554;2023-11-19T14:30:03;27.38;;;5.70;;
19026;SDS011;9646;52.034;5.554;2023-11-19T14:32:30;26.05;;;7.63;;
19026;SDS011;9646;52.034;5.554;2023-11-19T14:34:57;29.20;;;5.72;;
19026;SDS011;9646;52.034;5.554;2023-11-19T14:37:26;27.48;;;5.78;;
19026;SDS011;9646;52.034;5.554;2023-11-19T14:39:53;25.73;;;5.63;;
19026;SDS011;9646;52.034;5.554;2023-11-19T14:42:20;30.33;;;6.45;;
19026;SDS011;9646;52.034;5.554;2023-11-19T14:44:47;25.83;;;6.25;;
19026;SDS011;9646;52.034;5.554;2023-11-19T14:47:14;24.30;;;6.03;;
19026;SDS011;9646;52.034;5.554;2023-11-19T14:49:41;24.08;;;5.15;;
19026;SDS011;9646;52.034;5.554;2023-11-19T14:52:08;29.58;;;5.47;;
19026;SDS011;9646;52.034;5.554;2023-11-19T14:54:37;22.38;;;6.35;;
19026;SDS011;9646;52.034;5.554;2023-11-19T14:57:04;23.50;;;6.00;;
19026;SDS011;9646;52.034;5.554;2023-11-19T14:59:33;28.08;;;6.47;;